sensor_id;sensor_type;location;lat;lon;timestamp;P1;durP1;ratioP1;P2;durP2;ratioP2
11582;SDS011;34299;50.820;4.548;2023-09-12T00:00:08;20.70;;;11.23;;
11582;SDS011;34299;50.820;4.548;2023-09-12T00:02:36;19.20;;;11.37;;
11582;SDS011;34299;50.820;4.548;2023-09-12T00:05:04;17.83;;;10.03;;
11582;SDS011;34299;50.820;4.548;2023-09-12T00:07:31;21.67;;;11.30;;
11582;SDS011;34299;50.820;4.548;2023-09-12T00:09:58;20.23;;;10.70;;
11582;SDS011;34299;50.820;4.548;2023-09-12T00:12:25;18.70;;;12.40;;
11582;SDS011;34299;50.820;4.548;2023-09-12T00:14:54;22.53;;;12.00;;
11582;SDS011;34299;50.820;4.548;2023-09-12T00:17:21;22.37;;;11.97;;
11582;SDS011;34299;50.820;4.548;2023-09-12T00:19:48;17.83;;;11.00;;
11582;SDS011;34299;50.820;4.548;2023-09-12T00:22:14;18.67;;;11.07;;
11582;SDS011;34299;50.820;4.548;2023-09-12T00:24:41;19.67;;;11.87;;
11582;SDS011;34299;50.820;4.548;2023-09-12T00:27:08;17.67;;;10.07;;
11582;SDS011;34299;50.820;4.548;2023-09-12T00:29:35;19.53;;;11.20;;
11582;SDS011;34299;50.820;4.548;2023-09-12T00:32:04;16.07;;;10.67;;
11582;SDS011;34299;50.820;4.548;2023-09-12T00:34:31;21.50;;;10.47;;
11582;SDS011;34299;50.820;4.548;2023-09-12T00:36:58;17.77;;;9.90;;
11582;SDS011;34299;50.820;4.548;2023-09-12T00:39:25;17.00;;;10.13;;
11582;SDS011;34299;50.820;4.548;2023-09-12T00:41:52;23.30;;;11.63;;
11582;SDS011;34299;50.820;4.548;2023-09-12T00:44:19;20.27;;;12.33;;
11582;SDS011;34299;50.820;4.548;2023-09-12T00:46:46;21.13;;;12.40;;
11582;SDS011;34299;50.820;4.548;2023-09-12T00:49:17;22.33;;;11.77;;
11582;SDS011;34299;50.820;4.548;2023-09-12T00:51:44;20.27;;;12.43;;
11582;SDS011;34299;50.820;4.548;2023-09-12T00:54:12;20.00;;;11.43;;
11582;SDS011;34299;50.820;4.548;2023-09-12T00:56:39;25.00;;;11.73;;
11582;SDS011;34299;50.820;4.548;2023-09-12T00:59:06;23.30;;;11.97;;
11582;SDS011;34299;50.820;4.548;2023-09-12T01:01:34;20.03;;;10.67;;
11582;SDS011;34299;50.820;4.548;2023-09-12T01:04:01;21.97;;;11.07;;
11582;SDS011;34299;50.820;4.548;2023-09-12T01:06:30;18.27;;;10.17;;
11582;SDS011;34299;50.820;4.548;2023-09-12T01:08:59;20.20;;;11.03;;
11582;SDS011;34299;50.820;4.548;2023-09-12T01:11:26;18.47;;;11.37;;
11582;SDS011;34299;50.820;4.548;2023-09-12T01:13:55;22.90;;;12.33;;
11582;SDS011;34299;50.820;4.548;2023-09-12T01:16:22;21.60;;;11.93;;
11582;SDS011;34299;50.820;4.548;2023-09-12T01:18:48;25.17;;;13.47;;
11582;SDS011;34299;50.820;4.548;2023-09-12T01:21:32;22.23;;;12.90;;
11582;SDS011;34299;50.820;4.548;2023-09-12T01:24:10;27.93;;;13.13;;
11582;SDS011;34299;50.820;4.548;2023-09-12T01:26:56;21.83;;;11.50;;
11582;SDS011;34299;50.820;4.548;2023-09-12T01:29:31;20.70;;;11.77;;
11582;SDS011;34299;50.820;4.548;2023-09-12T01:31:59;22.43;;;12.60;;
11582;SDS011;34299;50.820;4.548;2023-09-12T01:34:27;19.73;;;11.50;;
11582;SDS011;34299;50.820;4.548;2023-09-12T01:36:54;17.57;;;11.40;;
11582;SDS011;34299;50.820;4.548;2023-09-12T01:39:21;20.70;;;11.27;;
11582;SDS011;34299;50.820;4.548;2023-09-12T01:41:48;20.23;;;11.67;;
11582;SDS011;34299;50.820;4.548;2023-09-12T01:44:18;19.63;;;11.73;;
11582;SDS011;34299;50.820;4.548;2023-09-12T01:46:49;19.67;;;11.87;;
11582;SDS011;34299;50.820;4.548;2023-09-12T01:49:18;23.37;;;11.20;;
11582;SDS011;34299;50.820;4.548;2023-09-12T01:51:47;19.50;;;11.13;;
11582;SDS011;34299;50.820;4.548;2023-09-12T01:54:14;40.43;;;11.10;;
11582;SDS011;34299;50.820;4.548;2023-09-12T01:56:42;23.77;;;12.73;;
11582;SDS011;34299;50.820;4.548;2023-09-12T01:59:10;21.13;;;11.63;;
11582;SDS011;34299;50.820;4.548;2023-09-12T02:01:37;20.73;;;10.73;;
11582;SDS011;34299;50.820;4.548;2023-09-12T02:04:05;16.83;;;10.33;;
11582;SDS011;34299;50.820;4.548;2023-09-12T02:06:34;18.53;;;10.10;;
11582;SDS011;34299;50.820;4.548;2023-09-12T02:09:00;19.53;;;10.07;;
11582;SDS011;34299;50.820;4.548;2023-09-12T02:11:27;18.40;;;11.37;;
11582;SDS011;34299;50.820;4.548;2023-09-12T02:13:54;16.67;;;9.90;;
11582;SDS011;34299;50.820;4.548;2023-09-12T02:16:21;16.17;;;9.67;;
11582;SDS011;34299;50.820;4.548;2023-09-12T02:18:48;17.50;;;10.40;;
11582;SDS011;34299;50.820;4.548;2023-09-12T02:21:16;18.87;;;10.10;;
11582;SDS011;34299;50.820;4.548;2023-09-12T02:23:43;18.20;;;9.03;;
11582;SDS011;34299;50.820;4.548;2023-09-12T02:26:10;19.20;;;9.30;;
11582;SDS011;34299;50.820;4.548;2023-09-12T02:28:37;18.90;;;9.77;;
11582;SDS011;34299;50.820;4.548;2023-09-12T02:31:09;16.10;;;10.07;;
11582;SDS011;34299;50.820;4.548;2023-09-12T02:33:37;16.40;;;8.23;;
11582;SDS011;34299;50.820;4.548;2023-09-12T02:36:04;16.70;;;9.80;;
11582;SDS011;34299;50.820;4.548;2023-09-12T02:38:32;15.27;;;8.43;;
11582;SDS011;34299;50.820;4.548;2023-09-12T02:41:00;31.87;;;8.90;;
11582;SDS011;34299;50.820;4.548;2023-09-12T02:43:28;11.00;;;7.43;;
11582;SDS011;34299;50.820;4.548;2023-09-12T02:45:55;15.20;;;8.67;;
11582;SDS011;34299;50.820;4.548;2023-09-12T02:48:22;16.17;;;9.10;;
11582;SDS011;34299;50.820;4.548;2023-09-12T02:50:51;18.17;;;9.67;;
11582;SDS011;34299;50.820;4.548;2023-09-12T02:53:18;18.43;;;8.90;;
11582;SDS011;34299;50.820;4.548;2023-09-12T02:55:46;17.17;;;9.93;;
11582;SDS011;34299;50.820;4.548;2023-09-12T02:58:13;16.57;;;9.40;;
11582;SDS011;34299;50.820;4.548;2023-09-12T03:00:40;23.50;;;10.40;;
11582;SDS011;34299;50.820;4.548;2023-09-12T03:03:07;21.50;;;12.40;;
11582;SDS011;34299;50.820;4.548;2023-09-12T03:05:37;23.43;;;13.17;;
11582;SDS011;34299;50.820;4.548;2023-09-12T03:08:04;27.03;;;12.03;;
11582;SDS011;34299;50.820;4.548;2023-09-12T03:10:31;24.77;;;13.20;;
11582;SDS011;34299;50.820;4.548;2023-09-12T03:12:59;29.50;;;14.67;;
11582;SDS011;34299;50.820;4.548;2023-09-12T03:15:26;31.00;;;14.63;;
11582;SDS011;34299;50.820;4.548;2023-09-12T03:17:53;30.87;;;15.30;;
11582;SDS011;34299;50.820;4.548;2023-09-12T03:20:20;25.77;;;13.73;;
11582;SDS011;34299;50.820;4.548;2023-09-12T03:22:47;27.43;;;13.47;;
11582;SDS011;34299;50.820;4.548;2023-09-12T03:25:14;27.40;;;14.33;;
11582;SDS011;34299;50.820;4.548;2023-09-12T03:27:41;28.13;;;13.93;;
11582;SDS011;34299;50.820;4.548;2023-09-12T03:30:09;26.53;;;13.57;;
11582;SDS011;34299;50.820;4.548;2023-09-12T03:32:37;21.97;;;12.40;;
11582;SDS011;34299;50.820;4.548;2023-09-12T03:35:04;22.60;;;12.57;;
11582;SDS011;34299;50.820;4.548;2023-09-12T03:37:31;22.63;;;14.10;;
11582;SDS011;34299;50.820;4.548;2023-09-12T03:39:58;20.80;;;12.40;;
11582;SDS011;34299;50.820;4.548;2023-09-12T03:42:25;26.03;;;13.33;;
11582;SDS011;34299;50.820;4.548;2023-09-12T03:44:52;30.53;;;13.67;;
11582;SDS011;34299;50.820;4.548;2023-09-12T03:47:20;24.63;;;13.20;;
11582;SDS011;34299;50.820;4.548;2023-09-12T03:49:47;25.27;;;13.00;;
11582;SDS011;34299;50.820;4.548;2023-09-12T03:52:14;23.23;;;12.93;;
11582;SDS011;34299;50.820;4.548;2023-09-12T03:54:41;19.13;;;12.60;;
11582;SDS011;34299;50.820;4.548;2023-09-12T03:57:08;22.63;;;12.63;;
11582;SDS011;34299;50.820;4.548;2023-09-12T03:59:35;24.00;;;12.00;;
11582;SDS011;34299;50.820;4.548;2023-09-12T04:02:02;22.97;;;12.67;;
11582;SDS011;34299;50.820;4.548;2023-09-12T04:04:33;20.47;;;13.23;;
11582;SDS011;34299;50.820;4.548;2023-09-12T04:07:00;23.60;;;12.67;;
11582;SDS011;34299;50.820;4.548;2023-09-12T04:09:27;27.10;;;12.13;;
11582;SDS011;34299;50.820;4.548;2023-09-12T04:11:54;24.13;;;11.90;;
11582;SDS011;34299;50.820;4.548;2023-09-12T04:14:21;31.57;;;15.03;;
11582;SDS011;34299;50.820;4.548;2023-09-12T04:16:48;30.67;;;13.93;;
11582;SDS011;34299;50.820;4.548;2023-09-12T04:19:15;29.80;;;14.80;;
11582;SDS011;34299;50.820;4.548;2023-09-12T04:21:44;28.30;;;15.53;;
11582;SDS011;34299;50.820;4.548;2023-09-12T04:24:10;30.37;;;15.57;;
11582;SDS011;34299;50.820;4.548;2023-09-12T04:26:37;33.10;;;15.23;;
11582;SDS011;34299;50.820;4.548;2023-09-12T04:29:04;32.07;;;15.40;;
11582;SDS011;34299;50.820;4.548;2023-09-12T04:31:31;34.80;;;16.47;;
11582;SDS011;34299;50.820;4.548;2023-09-12T04:33:58;39.77;;;15.83;;
11582;SDS011;34299;50.820;4.548;2023-09-12T04:36:25;28.63;;;14.07;;
11582;SDS011;34299;50.820;4.548;2023-09-12T04:38:53;28.63;;;14.63;;
11582;SDS011;34299;50.820;4.548;2023-09-12T04:41:20;28.13;;;15.37;;
11582;SDS011;34299;50.820;4.548;2023-09-12T04:43:47;25.07;;;14.10;;
11582;SDS011;34299;50.820;4.548;2023-09-12T04:46:14;22.53;;;13.17;;
11582;SDS011;34299;50.820;4.548;2023-09-12T04:48:41;30.83;;;14.83;;
11582;SDS011;34299;50.820;4.548;2023-09-12T04:51:08;26.43;;;13.70;;
11582;SDS011;34299;50.820;4.548;2023-09-12T04:53:35;29.13;;;15.07;;
11582;SDS011;34299;50.820;4.548;2023-09-12T04:56:04;29.90;;;14.27;;
11582;SDS011;34299;50.820;4.548;2023-09-12T04:58:31;25.90;;;13.80;;
11582;SDS011;34299;50.820;4.548;2023-09-12T05:00:58;25.10;;;12.97;;
11582;SDS011;34299;50.820;4.548;2023-09-12T05:03:25;23.63;;;12.70;;
11582;SDS011;34299;50.820;4.548;2023-09-12T05:05:52;29.13;;;13.70;;
11582;SDS011;34299;50.820;4.548;2023-09-12T05:08:19;28.17;;;13.10;;
11582;SDS011;34299;50.820;4.548;2023-09-12T05:10:46;26.80;;;13.47;;
11582;SDS011;34299;50.820;4.548;2023-09-12T05:13:14;24.93;;;13.40;;
11582;SDS011;34299;50.820;4.548;2023-09-12T05:15:42;26.23;;;14.40;;
11582;SDS011;34299;50.820;4.548;2023-09-12T05:18:09;28.53;;;13.77;;
11582;SDS011;34299;50.820;4.548;2023-09-12T05:20:36;26.53;;;14.57;;
11582;SDS011;34299;50.820;4.548;2023-09-12T05:23:03;36.53;;;16.23;;
11582;SDS011;34299;50.820;4.548;2023-09-12T05:25:30;36.20;;;15.37;;
11582;SDS011;34299;50.820;4.548;2023-09-12T05:27:57;51.63;;;22.53;;
11582;SDS011;34299;50.820;4.548;2023-09-12T05:30:25;31.30;;;16.37;;
11582;SDS011;34299;50.820;4.548;2023-09-12T05:32:52;33.47;;;15.23;;
11582;SDS011;34299;50.820;4.548;2023-09-12T05:35:19;30.80;;;14.60;;
11582;SDS011;34299;50.820;4.548;2023-09-12T05:37:46;32.10;;;14.47;;
11582;SDS011;34299;50.820;4.548;2023-09-12T05:40:13;30.13;;;15.20;;
11582;SDS011;34299;50.820;4.548;2023-09-12T05:42:40;24.83;;;13.90;;
11582;SDS011;34299;50.820;4.548;2023-09-12T05:45:07;27.07;;;14.63;;
11582;SDS011;34299;50.820;4.548;2023-09-12T05:47:36;30.47;;;14.50;;
11582;SDS011;34299;50.820;4.548;2023-09-12T05:50:03;28.80;;;13.73;;
11582;SDS011;34299;50.820;4.548;2023-09-12T05:52:31;27.67;;;14.50;;
11582;SDS011;34299;50.820;4.548;2023-09-12T05:54:58;27.47;;;15.00;;
11582;SDS011;34299;50.820;4.548;2023-09-12T05:57:25;20.93;;;12.43;;
11582;SDS011;34299;50.820;4.548;2023-09-12T05:59:52;23.20;;;11.80;;
11582;SDS011;34299;50.820;4.548;2023-09-12T06:02:19;19.47;;;11.50;;
11582;SDS011;34299;50.820;4.548;2023-09-12T06:04:47;21.40;;;12.13;;
11582;SDS011;34299;50.820;4.548;2023-09-12T06:07:15;23.10;;;11.13;;
11582;SDS011;34299;50.820;4.548;2023-09-12T06:09:42;24.47;;;12.40;;
11582;SDS011;34299;50.820;4.548;2023-09-12T06:12:09;20.13;;;11.73;;
11582;SDS011;34299;50.820;4.548;2023-09-12T06:14:36;21.33;;;11.93;;
11582;SDS011;34299;50.820;4.548;2023-09-12T06:17:03;25.10;;;12.80;;
11582;SDS011;34299;50.820;4.548;2023-09-12T06:19:30;23.43;;;12.53;;
11582;SDS011;34299;50.820;4.548;2023-09-12T06:21:58;24.73;;;13.60;;
11582;SDS011;34299;50.820;4.548;2023-09-12T06:24:25;26.23;;;12.83;;
11582;SDS011;34299;50.820;4.548;2023-09-12T06:26:52;23.30;;;13.10;;
11582;SDS011;34299;50.820;4.548;2023-09-12T06:29:19;21.70;;;12.63;;
11582;SDS011;34299;50.820;4.548;2023-09-12T06:31:46;21.37;;;12.17;;
11582;SDS011;34299;50.820;4.548;2023-09-12T06:34:13;22.23;;;12.97;;
11582;SDS011;34299;50.820;4.548;2023-09-12T06:36:40;27.13;;;13.63;;
11582;SDS011;34299;50.820;4.548;2023-09-12T06:39:11;28.77;;;15.13;;
11582;SDS011;34299;50.820;4.548;2023-09-12T06:41:38;29.30;;;14.97;;
11582;SDS011;34299;50.820;4.548;2023-09-12T06:44:05;28.90;;;15.00;;
11582;SDS011;34299;50.820;4.548;2023-09-12T06:46:32;31.00;;;15.77;;
11582;SDS011;34299;50.820;4.548;2023-09-12T06:49:01;27.57;;;14.80;;
11582;SDS011;34299;50.820;4.548;2023-09-12T06:51:28;34.77;;;16.50;;
11582;SDS011;34299;50.820;4.548;2023-09-12T06:53:55;32.43;;;17.07;;
11582;SDS011;34299;50.820;4.548;2023-09-12T06:56:24;39.43;;;18.37;;
11582;SDS011;34299;50.820;4.548;2023-09-12T06:58:52;35.73;;;17.67;;
11582;SDS011;34299;50.820;4.548;2023-09-12T07:01:20;39.47;;;18.50;;
11582;SDS011;34299;50.820;4.548;2023-09-12T07:03:48;43.03;;;19.93;;
11582;SDS011;34299;50.820;4.548;2023-09-12T07:06:18;45.73;;;20.87;;
11582;SDS011;34299;50.820;4.548;2023-09-12T07:08:46;47.13;;;23.20;;
11582;SDS011;34299;50.820;4.548;2023-09-12T07:11:12;44.07;;;22.03;;
11582;SDS011;34299;50.820;4.548;2023-09-12T07:13:41;42.83;;;22.23;;
11582;SDS011;34299;50.820;4.548;2023-09-12T07:16:08;51.97;;;23.97;;
11582;SDS011;34299;50.820;4.548;2023-09-12T07:18:35;55.77;;;22.47;;
11582;SDS011;34299;50.820;4.548;2023-09-12T07:21:03;54.03;;;24.87;;
11582;SDS011;34299;50.820;4.548;2023-09-12T07:23:31;55.33;;;23.00;;
11582;SDS011;34299;50.820;4.548;2023-09-12T07:25:58;63.93;;;25.20;;
11582;SDS011;34299;50.820;4.548;2023-09-12T07:28:26;59.77;;;24.93;;
11582;SDS011;34299;50.820;4.548;2023-09-12T07:30:54;58.47;;;25.90;;
11582;SDS011;34299;50.820;4.548;2023-09-12T07:33:21;54.50;;;24.40;;
11582;SDS011;34299;50.820;4.548;2023-09-12T07:35:48;55.63;;;24.20;;
11582;SDS011;34299;50.820;4.548;2023-09-12T07:38:18;40.97;;;21.70;;
11582;SDS011;34299;50.820;4.548;2023-09-12T07:40:45;43.83;;;21.53;;
11582;SDS011;34299;50.820;4.548;2023-09-12T07:43:12;36.77;;;19.30;;
11582;SDS011;34299;50.820;4.548;2023-09-12T07:45:38;37.33;;;19.50;;
11582;SDS011;34299;50.820;4.548;2023-09-12T07:48:07;41.00;;;19.93;;
11582;SDS011;34299;50.820;4.548;2023-09-12T07:50:36;37.70;;;19.53;;
11582;SDS011;34299;50.820;4.548;2023-09-12T07:53:04;43.67;;;20.43;;
11582;SDS011;34299;50.820;4.548;2023-09-12T07:55:31;38.27;;;20.07;;
11582;SDS011;34299;50.820;4.548;2023-09-12T07:58:01;33.10;;;17.87;;
11582;SDS011;34299;50.820;4.548;2023-09-12T08:00:28;31.70;;;18.73;;
11582;SDS011;34299;50.820;4.548;2023-09-12T08:02:56;34.57;;;18.47;;
11582;SDS011;34299;50.820;4.548;2023-09-12T08:05:24;28.70;;;17.87;;
11582;SDS011;34299;50.820;4.548;2023-09-12T08:07:51;33.17;;;19.20;;
11582;SDS011;34299;50.820;4.548;2023-09-12T08:10:18;29.73;;;17.40;;
11582;SDS011;34299;50.820;4.548;2023-09-12T08:12:45;35.50;;;17.93;;
11582;SDS011;34299;50.820;4.548;2023-09-12T08:15:12;34.47;;;16.30;;
11582;SDS011;34299;50.820;4.548;2023-09-12T08:17:39;34.73;;;18.63;;
11582;SDS011;34299;50.820;4.548;2023-09-12T08:20:07;32.17;;;17.60;;
11582;SDS011;34299;50.820;4.548;2023-09-12T08:22:36;35.00;;;15.70;;
11582;SDS011;34299;50.820;4.548;2023-09-12T08:25:04;32.53;;;16.40;;
11582;SDS011;34299;50.820;4.548;2023-09-12T08:27:32;35.47;;;18.60;;
11582;SDS011;34299;50.820;4.548;2023-09-12T08:29:59;28.67;;;16.30;;
11582;SDS011;34299;50.820;4.548;2023-09-12T08:32:26;32.80;;;17.33;;
11582;SDS011;34299;50.820;4.548;2023-09-12T08:34:53;33.37;;;17.33;;
11582;SDS011;34299;50.820;4.548;2023-09-12T08:37:20;29.50;;;17.27;;
11582;SDS011;34299;50.820;4.548;2023-09-12T08:39:48;28.97;;;16.00;;
11582;SDS011;34299;50.820;4.548;2023-09-12T08:42:17;28.93;;;15.13;;
11582;SDS011;34299;50.820;4.548;2023-09-12T08:44:45;25.17;;;13.77;;
11582;SDS011;34299;50.820;4.548;2023-09-12T08:47:12;21.83;;;12.73;;
11582;SDS011;34299;50.820;4.548;2023-09-12T08:49:41;28.33;;;14.67;;
11582;SDS011;34299;50.820;4.548;2023-09-12T08:52:09;25.80;;;14.43;;
11582;SDS011;34299;50.820;4.548;2023-09-12T08:54:36;19.47;;;12.67;;
11582;SDS011;34299;50.820;4.548;2023-09-12T08:57:05;31.70;;;14.23;;
11582;SDS011;34299;50.820;4.548;2023-09-12T08:59:33;21.80;;;11.97;;
11582;SDS011;34299;50.820;4.548;2023-09-12T09:02:01;19.73;;;11.23;;
11582;SDS011;34299;50.820;4.548;2023-09-12T09:04:33;16.83;;;10.33;;
11582;SDS011;34299;50.820;4.548;2023-09-12T09:07:01;18.40;;;9.97;;
11582;SDS011;34299;50.820;4.548;2023-09-12T09:09:30;20.77;;;11.40;;
11582;SDS011;34299;50.820;4.548;2023-09-12T09:11:58;18.13;;;9.60;;
11582;SDS011;34299;50.820;4.548;2023-09-12T09:14:26;14.90;;;9.40;;
11582;SDS011;34299;50.820;4.548;2023-09-12T09:16:53;16.80;;;9.67;;
11582;SDS011;34299;50.820;4.548;2023-09-12T09:19:20;18.27;;;10.50;;
11582;SDS011;34299;50.820;4.548;2023-09-12T09:21:47;15.63;;;10.20;;
11582;SDS011;34299;50.820;4.548;2023-09-12T09:24:14;18.97;;;10.63;;
11582;SDS011;34299;50.820;4.548;2023-09-12T09:26:44;20.77;;;11.83;;
11582;SDS011;34299;50.820;4.548;2023-09-12T09:29:13;17.73;;;9.77;;
11582;SDS011;34299;50.820;4.548;2023-09-12T09:31:43;14.60;;;9.30;;
11582;SDS011;34299;50.820;4.548;2023-09-12T09:34:11;13.73;;;7.97;;
11582;SDS011;34299;50.820;4.548;2023-09-12T09:36:42;15.33;;;10.10;;
11582;SDS011;34299;50.820;4.548;2023-09-12T09:39:10;11.73;;;7.93;;
11582;SDS011;34299;50.820;4.548;2023-09-12T09:41:37;16.53;;;7.77;;
11582;SDS011;34299;50.820;4.548;2023-09-12T09:44:05;13.33;;;8.50;;
11582;SDS011;34299;50.820;4.548;2023-09-12T09:46:33;15.40;;;9.40;;
11582;SDS011;34299;50.820;4.548;2023-09-12T09:49:02;14.23;;;8.13;;
11582;SDS011;34299;50.820;4.548;2023-09-12T09:51:31;15.53;;;7.77;;
11582;SDS011;34299;50.820;4.548;2023-09-12T09:53:58;14.50;;;8.40;;
11582;SDS011;34299;50.820;4.548;2023-09-12T09:56:25;14.50;;;7.13;;
11582;SDS011;34299;50.820;4.548;2023-09-12T09:58:53;13.63;;;7.47;;
11582;SDS011;34299;50.820;4.548;2023-09-12T10:01:21;9.90;;;6.60;;
11582;SDS011;34299;50.820;4.548;2023-09-12T10:03:49;12.43;;;6.70;;
11582;SDS011;34299;50.820;4.548;2023-09-12T10:06:18;12.80;;;7.33;;
11582;SDS011;34299;50.820;4.548;2023-09-12T10:08:49;10.47;;;6.40;;
11582;SDS011;34299;50.820;4.548;2023-09-12T10:11:16;12.00;;;6.47;;
11582;SDS011;34299;50.820;4.548;2023-09-12T10:13:46;11.03;;;7.37;;
11582;SDS011;34299;50.820;4.548;2023-09-12T10:16:18;9.17;;;6.50;;
11582;SDS011;34299;50.820;4.548;2023-09-12T10:18:49;11.63;;;6.63;;
11582;SDS011;34299;50.820;4.548;2023-09-12T10:21:27;10.67;;;5.77;;
11582;SDS011;34299;50.820;4.548;2023-09-12T10:23:56;11.70;;;5.70;;
11582;SDS011;34299;50.820;4.548;2023-09-12T10:26:25;7.13;;;5.27;;
11582;SDS011;34299;50.820;4.548;2023-09-12T10:28:53;8.53;;;4.57;;
11582;SDS011;34299;50.820;4.548;2023-09-12T10:31:21;6.10;;;4.27;;
11582;SDS011;34299;50.820;4.548;2023-09-12T10:33:50;8.23;;;4.27;;
11582;SDS011;34299;50.820;4.548;2023-09-12T10:36:18;6.47;;;3.97;;
11582;SDS011;34299;50.820;4.548;2023-09-12T10:38:48;7.03;;;5.50;;
11582;SDS011;34299;50.820;4.548;2023-09-12T10:41:16;9.30;;;5.93;;
11582;SDS011;34299;50.820;4.548;2023-09-12T10:43:45;7.27;;;4.93;;
11582;SDS011;34299;50.820;4.548;2023-09-12T10:46:15;9.80;;;5.37;;
11582;SDS011;34299;50.820;4.548;2023-09-12T10:48:42;7.90;;;4.73;;
11582;SDS011;34299;50.820;4.548;2023-09-12T10:51:10;5.93;;;4.33;;
11582;SDS011;34299;50.820;4.548;2023-09-12T10:53:38;7.30;;;4.63;;
11582;SDS011;34299;50.820;4.548;2023-09-12T10:56:16;6.10;;;4.73;;
11582;SDS011;34299;50.820;4.548;2023-09-12T11:01:40;5.67;;;3.87;;
11582;SDS011;34299;50.820;4.548;2023-09-12T11:06:58;7.50;;;5.10;;
11582;SDS011;34299;50.820;4.548;2023-09-12T11:09:25;8.83;;;4.63;;
11582;SDS011;34299;50.820;4.548;2023-09-12T11:11:55;8.83;;;5.20;;
11582;SDS011;34299;50.820;4.548;2023-09-12T11:14:25;6.53;;;3.63;;
11582;SDS011;34299;50.820;4.548;2023-09-12T11:19:52;5.63;;;4.50;;
11582;SDS011;34299;50.820;4.548;2023-09-12T11:22:20;6.00;;;4.00;;
11582;SDS011;34299;50.820;4.548;2023-09-12T11:24:49;6.40;;;4.40;;
11582;SDS011;34299;50.820;4.548;2023-09-12T11:27:17;6.57;;;4.23;;
11582;SDS011;34299;50.820;4.548;2023-09-12T11:29:44;5.77;;;4.83;;
11582;SDS011;34299;50.820;4.548;2023-09-12T11:32:24;5.80;;;4.07;;
11582;SDS011;34299;50.820;4.548;2023-09-12T11:34:52;6.60;;;4.47;;
11582;SDS011;34299;50.820;4.548;2023-09-12T11:37:22;6.23;;;4.30;;
11582;SDS011;34299;50.820;4.548;2023-09-12T11:39:49;7.50;;;4.40;;
11582;SDS011;34299;50.820;4.548;2023-09-12T11:42:19;5.20;;;3.93;;
11582;SDS011;34299;50.820;4.548;2023-09-12T11:44:48;5.83;;;4.23;;
11582;SDS011;34299;50.820;4.548;2023-09-12T11:47:16;7.07;;;4.07;;
11582;SDS011;34299;50.820;4.548;2023-09-12T11:49:43;6.80;;;3.60;;
11582;SDS011;34299;50.820;4.548;2023-09-12T11:52:10;7.13;;;3.87;;
11582;SDS011;34299;50.820;4.548;2023-09-12T11:54:39;5.73;;;4.03;;
11582;SDS011;34299;50.820;4.548;2023-09-12T11:57:07;4.70;;;3.70;;
11582;SDS011;34299;50.820;4.548;2023-09-12T11:59:38;7.27;;;3.93;;
11582;SDS011;34299;50.820;4.548;2023-09-12T12:02:06;7.17;;;4.63;;
11582;SDS011;34299;50.820;4.548;2023-09-12T12:04:34;5.40;;;4.10;;
11582;SDS011;34299;50.820;4.548;2023-09-12T12:07:01;6.07;;;4.00;;
11582;SDS011;34299;50.820;4.548;2023-09-12T12:09:29;5.10;;;4.00;;
11582;SDS011;34299;50.820;4.548;2023-09-12T12:11:56;4.73;;;4.03;;
11582;SDS011;34299;50.820;4.548;2023-09-12T12:14:30;5.17;;;3.87;;
11582;SDS011;34299;50.820;4.548;2023-09-12T12:17:06;4.20;;;3.63;;
11582;SDS011;34299;50.820;4.548;2023-09-12T12:19:34;4.57;;;3.60;;
11582;SDS011;34299;50.820;4.548;2023-09-12T12:22:02;6.23;;;3.67;;
11582;SDS011;34299;50.820;4.548;2023-09-12T12:24:36;4.63;;;3.93;;
11582;SDS011;34299;50.820;4.548;2023-09-12T12:27:04;5.23;;;3.37;;
11582;SDS011;34299;50.820;4.548;2023-09-12T12:29:33;7.37;;;3.80;;
11582;SDS011;34299;50.820;4.548;2023-09-12T12:32:00;7.70;;;4.00;;
11582;SDS011;34299;50.820;4.548;2023-09-12T12:34:28;7.57;;;4.13;;
11582;SDS011;34299;50.820;4.548;2023-09-12T12:36:55;4.97;;;3.73;;
11582;SDS011;34299;50.820;4.548;2023-09-12T12:39:23;4.57;;;3.87;;
11582;SDS011;34299;50.820;4.548;2023-09-12T12:41:51;4.03;;;3.50;;
11582;SDS011;34299;50.820;4.548;2023-09-12T12:44:19;4.50;;;3.53;;
11582;SDS011;34299;50.820;4.548;2023-09-12T12:46:49;4.43;;;3.53;;
11582;SDS011;34299;50.820;4.548;2023-09-12T12:49:17;7.50;;;3.73;;
11582;SDS011;34299;50.820;4.548;2023-09-12T12:51:46;7.57;;;3.67;;
11582;SDS011;34299;50.820;4.548;2023-09-12T12:54:13;5.00;;;3.63;;
11582;SDS011;34299;50.820;4.548;2023-09-12T12:56:42;5.33;;;3.83;;
11582;SDS011;34299;50.820;4.548;2023-09-12T12:59:10;5.07;;;3.77;;
11582;SDS011;34299;50.820;4.548;2023-09-12T13:01:37;4.60;;;3.53;;
11582;SDS011;34299;50.820;4.548;2023-09-12T13:04:05;6.47;;;3.33;;
11582;SDS011;34299;50.820;4.548;2023-09-12T13:06:33;6.47;;;4.07;;
11582;SDS011;34299;50.820;4.548;2023-09-12T13:09:03;4.70;;;3.77;;
11582;SDS011;34299;50.820;4.548;2023-09-12T13:11:31;5.53;;;3.47;;
11582;SDS011;34299;50.820;4.548;2023-09-12T13:13:59;4.70;;;3.33;;
11582;SDS011;34299;50.820;4.548;2023-09-12T13:16:27;5.43;;;3.57;;
11582;SDS011;34299;50.820;4.548;2023-09-12T13:18:55;6.20;;;3.87;;
11582;SDS011;34299;50.820;4.548;2023-09-12T13:21:21;6.27;;;3.67;;
11582;SDS011;34299;50.820;4.548;2023-09-12T13:23:48;6.00;;;4.40;;
11582;SDS011;34299;50.820;4.548;2023-09-12T13:26:17;4.07;;;3.63;;
11582;SDS011;34299;50.820;4.548;2023-09-12T13:28:43;5.10;;;3.87;;
11582;SDS011;34299;50.820;4.548;2023-09-12T13:31:10;4.57;;;3.43;;
11582;SDS011;34299;50.820;4.548;2023-09-12T13:33:38;8.67;;;4.43;;
11582;SDS011;34299;50.820;4.548;2023-09-12T13:36:05;7.07;;;4.47;;
11582;SDS011;34299;50.820;4.548;2023-09-12T13:38:32;7.93;;;4.93;;
11582;SDS011;34299;50.820;4.548;2023-09-12T13:40:58;6.07;;;5.17;;
11582;SDS011;34299;50.820;4.548;2023-09-12T13:43:27;7.63;;;5.60;;
11582;SDS011;34299;50.820;4.548;2023-09-12T13:45:54;5.40;;;4.10;;
11582;SDS011;34299;50.820;4.548;2023-09-12T13:48:21;5.70;;;4.13;;
11582;SDS011;34299;50.820;4.548;2023-09-12T13:50:48;4.93;;;3.93;;
11582;SDS011;34299;50.820;4.548;2023-09-12T13:53:15;5.27;;;3.80;;
11582;SDS011;34299;50.820;4.548;2023-09-12T13:55:41;5.03;;;4.30;;
11582;SDS011;34299;50.820;4.548;2023-09-12T13:58:08;9.83;;;4.87;;
11582;SDS011;34299;50.820;4.548;2023-09-12T14:00:37;8.70;;;4.77;;
11582;SDS011;34299;50.820;4.548;2023-09-12T14:03:04;7.00;;;5.00;;
11582;SDS011;34299;50.820;4.548;2023-09-12T14:05:31;5.87;;;4.00;;
11582;SDS011;34299;50.820;4.548;2023-09-12T14:07:58;6.13;;;4.70;;
11582;SDS011;34299;50.820;4.548;2023-09-12T14:10:25;6.33;;;4.60;;
11582;SDS011;34299;50.820;4.548;2023-09-12T14:12:52;7.53;;;4.60;;
11582;SDS011;34299;50.820;4.548;2023-09-12T14:15:19;7.60;;;4.30;;
11582;SDS011;34299;50.820;4.548;2023-09-12T14:17:48;7.53;;;4.37;;
11582;SDS011;34299;50.820;4.548;2023-09-12T14:20:15;8.53;;;4.20;;
11582;SDS011;34299;50.820;4.548;2023-09-12T14:22:42;7.97;;;4.60;;
11582;SDS011;34299;50.820;4.548;2023-09-12T14:25:09;7.20;;;3.70;;
11582;SDS011;34299;50.820;4.548;2023-09-12T14:27:40;7.90;;;4.87;;
11582;SDS011;34299;50.820;4.548;2023-09-12T14:30:08;5.13;;;3.97;;
11582;SDS011;34299;50.820;4.548;2023-09-12T14:32:36;6.53;;;4.07;;
11582;SDS011;34299;50.820;4.548;2023-09-12T14:35:05;9.63;;;4.40;;
11582;SDS011;34299;50.820;4.548;2023-09-12T14:37:32;7.33;;;4.43;;
11582;SDS011;34299;50.820;4.548;2023-09-12T14:40:02;8.80;;;4.60;;
11582;SDS011;34299;50.820;4.548;2023-09-12T14:42:30;6.43;;;4.80;;